Wylde Swan — PIWS — position and weather

sailwx.info

Track history (hours):
 
Tides and Currents Weather Stations Pressure Air Temp Water Temp Dewpoint Dewpoint Depression Visibility Wind Speed Wind Dir Waves Ship Positions

Wylde Swan

Last reported at 2017-Oct-19 03:00 UTC. Time now 2017-Oct-19 03:24 UTC.
Position N 50°06' W 004°46'.

Length 45 m; draft 3.4 m.

Type: Sailing vessel. MMSI: 244074000.

Date/timePositionNaut miles runAvg speedWind from/ knotsBaromVisibWave heightAir tempDewpointWater temp
2017-Oct-19 03:00N 50°06' W 004°46'2 3.7
2017-Oct-19 02:30N 50°06' W 004°43'2 3.9
2017-Oct-19 02:00N 50°05' W 004°40'2 3.6
2017-Oct-19 01:30N 50°05' W 004°37'2 3.4
2017-Oct-19 01:00N 50°05' W 004°34'1 2.9
2017-Oct-19 00:30N 50°06' W 004°32'2 3.2
2017-Oct-19 00:00N 50°06' W 004°30'2 3.3
2017-Oct-18 23:30N 50°06' W 004°27'2 4.3
2017-Oct-18 23:00N 50°06' W 004°24'2 5.0
2017-Oct-18 22:30N 50°07' W 004°20'3 5.3
2017-Oct-18 22:00N 50°07' W 004°16'3 5.0
2017-Oct-18 21:30N 50°07' W 004°12'2 4.7
2017-Oct-18 21:00N 50°07' W 004°08'2 4.7
2017-Oct-18 20:30N 50°07' W 004°05'2 3.8
2017-Oct-18 20:00N 50°07' W 004°02'2 3.4
2017-Oct-18 19:30N 50°07' W 003°59'1 2.2
2017-Oct-18 19:00N 50°07' W 003°57'2 4.3
2017-Oct-18 18:29N 50°07' W 003°54'2 4.7
2017-Oct-18 18:00N 50°07' W 003°50'2 4.3
2017-Oct-18 17:30N 50°08' W 003°47'2 4.3
2017-Oct-18 17:00N 50°08' W 003°44'2 4.4
2017-Oct-18 16:30N 50°08' W 003°40'1 2.7
2017-Oct-18 16:00N 50°07' W 003°38'2 3.6
2017-Oct-18 15:30N 50°07' W 003°35'2 3.6
2017-Oct-18 15:00N 50°08' W 003°33'4 4.3
2017-Oct-18 14:00N 50°08' W 003°26'3 5.7
2017-Oct-18 13:30N 50°08' W 003°21'3 6.0
2017-Oct-18 13:00N 50°08' W 003°17'3 6.0
2017-Oct-18 12:30N 50°08' W 003°12'2 3.7
2017-Oct-18 12:00N 50°09' W 003°09'2 3.6
2017-Oct-18 11:30N 50°09' W 003°07'2 4.0
2017-Oct-18 11:00N 50°10' W 003°04'2 4.5
2017-Oct-18 10:30N 50°10' W 003°00'2 4.4
2017-Oct-18 10:00N 50°11' W 002°57'2 4.4
2017-Oct-18 09:30N 50°11' W 002°53'2 4.5
2017-Oct-18 08:57N 50°12' W 002°50'2 4.4
2017-Oct-18 08:30N 50°12' W 002°47'2 4.1
2017-Oct-18 08:00N 50°13' W 002°43'2 4.3
2017-Oct-18 07:30N 50°13' W 002°40'2 3.9
2017-Oct-18 07:00N 50°14' W 002°37'2 3.7
2017-Oct-18 06:30N 50°14' W 002°34'2 4.3
2017-Oct-18 06:00N 50°14' W 002°31'47 7.4
2017-Oct-17 23:39N 50°24' W 001°19'3 8.2
2017-Oct-17 23:18N 50°24' W 001°14'5 7.1
2017-Oct-17 22:39N 50°24' W 001°07'3 6.6
2017-Oct-17 22:12N 50°25' W 001°02'1 6.0
2017-Oct-17 22:00N 50°25' W 001°01'3 5.4
2017-Oct-17 21:25N 50°25' W 000°56'4 3.9
2017-Oct-17 20:29N 50°25' W 000°50'2 2.9
2017-Oct-17 19:57N 50°25' W 000°48'2 2.4
2017-Oct-17 19:01N 50°25' W 000°44'0 2.2
2017-Oct-17 19:00N 50°25' W 000°44'1 1.9
2017-Oct-17 18:25N 50°25' W 000°42'1 1.7
2017-Oct-17 17:56N 50°25' W 000°41'2 4.2
2017-Oct-17 17:26N 50°24' W 000°38'2 5.3
2017-Oct-17 16:59N 50°25' W 000°35'3 5.9
2017-Oct-17 16:30N 50°26' W 000°30'3 6.7
2017-Oct-17 16:01N 50°27' W 000°26'4 7.4
2017-Oct-17 15:30N 50°29' W 000°20'4 7.7
2017-Oct-17 15:00N 50°30' W 000°14'4 8.0
2017-Oct-17 14:30N 50°31' W 000°08'4 8.0
2017-Oct-17 14:00N 50°32' W 000°03'4 8.0
2017-Oct-17 13:31N 50°33' E 000°03'4 7.6
2017-Oct-17 13:00N 50°35' E 000°09'4 7.3
2017-Oct-17 12:30N 50°36' E 000°15'3 6.6
2017-Oct-17 12:00N 50°36' E 000°20'3 6.3
2017-Oct-17 11:30N 50°37' E 000°24'3 6.2
2017-Oct-17 11:00N 50°38' E 000°29'3 5.8
2017-Oct-17 10:30N 50°39' E 000°33'3 5.3
2017-Oct-17 10:01N 50°41' E 000°36'3 5.2
2017-Oct-17 09:30N 50°42' E 000°40'3 5.2
2017-Oct-17 09:00N 50°43' E 000°44'2 4.7
2017-Oct-17 08:30N 50°44' E 000°47'2 4.7
2017-Oct-17 08:01N 50°46' E 000°50'2 4.3
2017-Oct-17 07:30N 50°47' E 000°53'2 4.6
2017-Oct-17 07:00N 50°48' E 000°56'2 4.2
2017-Oct-17 06:29N 50°49' E 000°59'2 4.3
2017-Oct-17 05:58N 50°51' E 001°02'3 5.2
2017-Oct-17 05:27N 50°52' E 001°05'2 5.5
2017-Oct-17 05:01N 50°54' E 001°08'3 5.8
2017-Oct-17 04:30N 50°56' E 001°12'3 5.4
2017-Oct-17 03:59N 50°57' E 001°15'3 5.5
2017-Oct-17 03:30N 50°59' E 001°18'3 6.5
2017-Oct-17 03:00N 51°01' E 001°22'3 5.4
2017-Oct-17 02:30N 51°03' E 001°25'3 5.0
2017-Oct-17 02:00N 51°05' E 001°28'2 4.2
2017-Oct-17 01:30N 51°06' E 001°30'2 3.7
2017-Oct-17 01:00N 51°08' E 001°32'2 3.3
2017-Oct-17 00:30N 51°09' E 001°33'1 2.2
2017-Oct-17 00:01N 51°10' E 001°35'1 2.4
2017-Oct-16 23:30N 51°11' E 001°35'1 1.3
2017-Oct-16 23:00N 51°10' E 001°36'1 2.1
2017-Oct-16 22:31N 51°11' E 001°36'0 0.7
2017-Oct-16 22:00N 51°11' E 001°37'1 1.8
2017-Oct-16 21:30N 51°12' E 001°36'2 3.3
2017-Oct-16 21:00N 51°11' E 001°37'1 1.6
2017-Oct-16 20:30N 51°12' E 001°37'0 0.8
2017-Oct-16 20:01N 51°11' E 001°38'0 0.7
2017-Oct-16 19:30N 51°11' E 001°38'1 1.3
2017-Oct-16 19:00N 51°12' E 001°39'1 1.8
2017-Oct-16 18:30N 51°12' E 001°40'2 3.4
2017-Oct-16 18:00N 51°14' E 001°41'2 4.4
2017-Oct-16 17:31N 51°16' E 001°43'3 5.8
2017-Oct-16 17:00N 51°18' E 001°44'3 6.6
2017-Oct-16 16:30N 51°22' E 001°45'3 6.0
2017-Oct-16 16:00N 51°25' E 001°45'3 5.4
2017-Oct-16 15:30N 51°27' E 001°45'2 4.8
2017-Oct-16 15:00N 51°30' E 001°45'2 4.4
2017-Oct-16 14:30N 51°32' E 001°45'4 4.1
2017-Oct-16 13:30N 51°36' E 001°45'2 4.0
2017-Oct-16 13:00N 51°38' E 001°45'2 3.9
2017-Oct-16 12:30N 51°40' E 001°45'2 3.8
2017-Oct-16 12:00N 51°42' E 001°45'2 3.4
2017-Oct-16 11:31N 51°44' E 001°45'2 3.8
2017-Oct-16 11:00N 51°46' E 001°45'2 4.8
2017-Oct-16 10:30N 51°48' E 001°45'3 5.3
2017-Oct-16 10:00N 51°51' E 001°44'3 5.9
2017-Oct-16 09:30N 51°53' E 001°44'3 6.3
2017-Oct-16 09:00N 51°57' E 001°44'4 7.4
2017-Oct-16 08:30N 51°60' E 001°47'4 7.9
2017-Oct-16 08:00N 52°03' E 001°51'4 8.1
2017-Oct-16 07:30N 52°05' E 001°57'4 8.6
2017-Oct-16 07:00N 52°08' E 002°02'48 7.2
2017-Oct-16 00:22N 52°45' E 002°52'2 5.6
2017-Oct-16 00:00N 52°46' E 002°55'3 5.2
2017-Oct-15 23:30N 52°47' E 002°59'3 5.1
2017-Oct-15 23:00N 52°48' E 003°02'2 4.9
2017-Oct-15 22:30N 52°49' E 003°06'2 4.7
2017-Oct-15 22:00N 52°50' E 003°10'2 3.8
2017-Oct-15 21:30N 52°51' E 003°12'2 4.0
2017-Oct-15 20:59N 52°52' E 003°16'2 4.0
2017-Oct-15 20:29N 52°53' E 003°18'9 4.0
2017-Oct-15 18:17N 52°59' E 003°29'1 4.2
2017-Oct-15 18:00N 52°60' E 003°31'2 4.5
2017-Oct-15 17:28N 53°01' E 003°34'2 4.6
2017-Oct-15 16:58N 53°02' E 003°38'3 5.2
2017-Oct-15 16:25N 53°03' E 003°42'2 5.8
2017-Oct-15 16:00N 53°04' E 003°46'3 5.3
2017-Oct-15 15:25N 53°05' E 003°51'2 5.2
2017-Oct-15 15:00N 53°06' E 003°54'5 5.3
2017-Oct-15 14:00N 53°08' E 004°02'3 5.4
2017-Oct-15 13:28N 53°09' E 004°07'3 5.5
2017-Oct-15 13:00N 53°10' E 004°11'3 5.5
2017-Oct-15 12:30N 53°11' E 004°15'3 5.8
2017-Oct-15 12:00N 53°12' E 004°19'3 6.5
2017-Oct-15 11:30N 53°13' E 004°25'4 7.5
2017-Oct-15 11:00N 53°13' E 004°31'4 7.8
2017-Oct-15 10:30N 53°13' E 004°37'4 7.1
2017-Oct-15 10:00N 53°15' E 004°42'4 7.4
2017-Oct-15 09:30N 53°17' E 004°47'4 8.6
2017-Oct-15 09:00N 53°18' E 004°54'4 8.5
2017-Oct-15 08:30N 53°19' E 005°01'5 9.3
2017-Oct-15 08:00N 53°19' E 005°09'3 6.7
2017-Oct-15 07:30N 53°18' E 005°14'2 3.0
2017-Oct-15 07:00N 53°20' E 005°14'1 2.9
2017-Oct-15 06:31N 53°21' E 005°13'1 1.6
2017-Oct-15 06:00N 53°22' E 005°13'0 0.0
2017-Oct-15 05:30N 53°22' E 005°13'0 0.0
2017-Oct-15 05:00N 53°22' E 005°13'0 0.0
2017-Oct-15 04:30N 53°22' E 005°13'0 0.0
2017-Oct-15 04:00N 53°22' E 005°13'0 0.0
2017-Oct-15 03:30N 53°22' E 005°13'0 0.0
2017-Oct-15 03:00N 53°22' E 005°13'0 0.0
2017-Oct-15 02:30N 53°22' E 005°13'0 0.0
2017-Oct-15 02:00N 53°22' E 005°13'0 0.0
2017-Oct-15 01:30N 53°22' E 005°13'0 0.0
2017-Oct-15 01:00N 53°22' E 005°13'0 0.0
2017-Oct-15 00:30N 53°22' E 005°13'0 0.0
2017-Oct-14 23:57N 53°22' E 005°13'0 0.0
2017-Oct-14 23:30N 53°22' E 005°13'0 0.0
2017-Oct-14 23:00N 53°22' E 005°13'0 0.0
2017-Oct-14 22:27N 53°22' E 005°13'0 0.0
2017-Oct-14 21:57N 53°22' E 005°13'0 0.0
2017-Oct-14 21:30N 53°22' E 005°13'0 0.0
2017-Oct-14 21:00N 53°22' E 005°13'0 0.0
2017-Oct-14 20:27N 53°22' E 005°13'0 0.0
2017-Oct-14 20:00N 53°22' E 005°13'0 0.0
2017-Oct-14 19:27N 53°22' E 005°13'0 0.0
2017-Oct-14 19:00N 53°22' E 005°13'0 0.0
2017-Oct-14 18:30N 53°22' E 005°13'0 0.0
2017-Oct-14 17:57N 53°22' E 005°13'0 0.0
2017-Oct-14 17:30N 53°22' E 005°13'0 0.0
2017-Oct-14 16:57N 53°22' E 005°13'0 0.1
2017-Oct-14 16:30N 53°22' E 005°13'2 3.4
2017-Oct-14 16:00N 53°20' E 005°13'2 4.6
2017-Oct-14 15:30N 53°18' E 005°13'3 6.8
2017-Oct-14 15:00N 53°15' E 005°10'3 6.5
2017-Oct-14 14:30N 53°14' E 005°15'3 6.7
2017-Oct-14 14:00N 53°12' E 005°19'3 6.0
2017-Oct-14 13:30N 53°11' E 005°24'1 1.2
2017-Oct-14 12:58N 53°10' E 005°25'0 0.0
2017-Oct-14 12:28N 53°10' E 005°25'0 0.0
2017-Oct-14 11:58N 53°10' E 005°25'0 0.0
2017-Oct-14 11:28N 53°10' E 005°25'0 0.0
2017-Oct-14 10:58N 53°10' E 005°25'0 0.0
2017-Oct-14 10:28N 53°10' E 005°25'0 0.0
2017-Oct-14 09:58N 53°10' E 005°25'0 0.0
2017-Oct-14 09:28N 53°10' E 005°25'0 0.0
2017-Oct-14 08:58N 53°10' E 005°25'0 0.0
2017-Oct-14 08:28N 53°10' E 005°25'0 0.0
2017-Oct-14 07:58N 53°10' E 005°25'0 0.0
2017-Oct-14 07:28N 53°10' E 005°25'0 0.0
2017-Oct-14 06:58N 53°10' E 005°25'0 0.0
2017-Oct-14 06:28N 53°10' E 005°25'0 0.0
2017-Oct-14 05:58N 53°10' E 005°25'0 0.0
2017-Oct-14 05:28N 53°10' E 005°25'0 0.0
2017-Oct-14 04:58N 53°10' E 005°25'0 0.0
2017-Oct-14 04:28N 53°10' E 005°25'0 0.0
2017-Oct-14 03:58N 53°10' E 005°25'0 0.0
2017-Oct-14 03:28N 53°10' E 005°25'0 0.0
2017-Oct-14 02:58N 53°10' E 005°25'0 0.0
2017-Oct-14 02:28N 53°10' E 005°25'0 0.0
2017-Oct-14 01:58N 53°10' E 005°25'0 0.0
2017-Oct-14 01:28N 53°10' E 005°25'0 0.0
2017-Oct-14 00:58N 53°10' E 005°25'0 0.0
2017-Oct-14 00:28N 53°10' E 005°25'0 0.0
2017-Oct-13 23:58N 53°10' E 005°25'0 0.0
2017-Oct-13 23:28N 53°10' E 005°25'0 0.0
2017-Oct-13 22:58N 53°10' E 005°25'0 0.0
2017-Oct-13 22:28N 53°10' E 005°25'0 0.0
2017-Oct-13 21:58N 53°10' E 005°25'0 0.0
2017-Oct-13 21:28N 53°10' E 005°25'0 0.0
2017-Oct-13 20:58N 53°10' E 005°25'0 0.0
2017-Oct-13 20:28N 53°10' E 005°25'0 0.0
2017-Oct-13 19:58N 53°10' E 005°25'0 0.0
2017-Oct-13 19:28N 53°10' E 005°25'0 0.0
2017-Oct-13 18:58N 53°10' E 005°25'0 0.0
2017-Oct-13 18:28N 53°10' E 005°25'0 0.0
2017-Oct-13 17:58N 53°10' E 005°25'0 0.0
2017-Oct-13 17:28N 53°10' E 005°25'0 0.0
2017-Oct-13 16:58N 53°10' E 005°25'0 0.0
2017-Oct-13 16:28N 53°10' E 005°25'0 0.0
2017-Oct-13 15:58N 53°10' E 005°25'0 0.0
2017-Oct-13 15:28N 53°10' E 005°25'0 0.0
2017-Oct-13 14:58N 53°10' E 005°25'0 0.0
2017-Oct-13 14:28N 53°10' E 005°25'0 0.0
2017-Oct-13 13:58N 53°10' E 005°25'0 0.0
2017-Oct-13 13:28N 53°10' E 005°25'0 0.0
2017-Oct-13 12:58N 53°10' E 005°25'0 0.0
2017-Oct-13 12:28N 53°10' E 005°25'0 0.0
2017-Oct-13 11:58N 53°10' E 005°25'0 0.0
2017-Oct-13 11:28N 53°10' E 005°25'0 0.0
2017-Oct-13 10:58N 53°10' E 005°25'0 0.0
2017-Oct-13 10:28N 53°10' E 005°25'0 0.0
2017-Oct-13 09:58N 53°10' E 005°25'0 0.0
2017-Oct-13 09:28N 53°10' E 005°25'0 0.0
2017-Oct-13 08:55N 53°10' E 005°25'0 0.0
2017-Oct-13 08:28N 53°10' E 005°25'0 0.0
2017-Oct-13 07:58N 53°10' E 005°25'0 0.0
2017-Oct-13 07:28N 53°10' E 005°25'0 0.0
2017-Oct-13 06:58N 53°10' E 005°25'0 0.0
2017-Oct-13 06:28N 53°10' E 005°25'0 0.0
2017-Oct-13 05:58N 53°10' E 005°25'0 0.0
2017-Oct-13 05:28N 53°10' E 005°25'0 0.0
2017-Oct-13 04:58N 53°10' E 005°25'0 0.0
2017-Oct-13 04:28N 53°10' E 005°25'0 0.0
2017-Oct-13 03:58N 53°10' E 005°25'0 0.0
2017-Oct-13 03:28N 53°10' E 005°25'0 0.0
2017-Oct-13 02:58N 53°10' E 005°25'0 0.0
2017-Oct-13 02:28N 53°10' E 005°25'0 0.0
2017-Oct-13 01:58N 53°10' E 005°25'0 0.0
2017-Oct-13 01:28N 53°10' E 005°25'0 0.0
2017-Oct-13 00:58N 53°10' E 005°25'0 0.0
2017-Oct-13 00:28N 53°10' E 005°25'0 0.0
2017-Oct-12 23:58N 53°10' E 005°25'0 0.0
2017-Oct-12 23:28N 53°10' E 005°25'0 0.0
2017-Oct-12 22:58N 53°10' E 005°25'0 0.0
2017-Oct-12 22:28N 53°10' E 005°25'0 0.0
2017-Oct-12 21:58N 53°10' E 005°25'0 0.0
2017-Oct-12 21:28N 53°10' E 005°25'0 0.0
2017-Oct-12 20:58N 53°10' E 005°25'0 0.0
2017-Oct-12 20:28N 53°10' E 005°25'0 0.0
2017-Oct-12 19:58N 53°10' E 005°25'0 0.0
2017-Oct-12 19:28N 53°10' E 005°25'0 0.0
2017-Oct-12 18:58N 53°10' E 005°25'0 0.0
2017-Oct-12 18:28N 53°10' E 005°25'0 0.0
2017-Oct-12 17:58N 53°10' E 005°25'0 0.0
2017-Oct-12 17:28N 53°10' E 005°25'0 0.0
2017-Oct-12 16:58N 53°10' E 005°25'0 0.0
2017-Oct-12 16:28N 53°10' E 005°25'0 0.0
2017-Oct-12 15:58N 53°10' E 005°25'0 0.0
2017-Oct-12 15:28N 53°10' E 005°25'0 0.0
2017-Oct-12 14:58N 53°10' E 005°25'0 0.0
2017-Oct-12 14:28N 53°10' E 005°25'0 0.0
2017-Oct-12 13:58N 53°10' E 005°25'0 0.0
2017-Oct-12 13:28N 53°10' E 005°25'0 0.0
2017-Oct-12 12:58N 53°10' E 005°25'0 0.0
2017-Oct-12 12:28N 53°10' E 005°25'0 0.0
2017-Oct-12 11:55N 53°10' E 005°25'0 0.0
2017-Oct-12 11:28N 53°10' E 005°25'0 0.0
2017-Oct-12 10:58N 53°10' E 005°25'0 0.0
2017-Oct-12 10:28N 53°10' E 005°25'0 0.0
2017-Oct-12 09:58N 53°10' E 005°25'0 0.0
2017-Oct-12 09:28N 53°10' E 005°25'0 0.0
2017-Oct-12 08:58N 53°10' E 005°25'0 0.0
2017-Oct-12 08:28N 53°10' E 005°25'0 0.0
2017-Oct-12 07:58N 53°10' E 005°25'0 0.0
2017-Oct-12 07:25N 53°10' E 005°25'0 0.0
2017-Oct-12 06:58N 53°10' E 005°25'0 0.0
2017-Oct-12 06:28N 53°10' E 005°25'0 0.0
2017-Oct-12 05:58N 53°10' E 005°25'0 0.0
2017-Oct-12 05:28N 53°10' E 005°25'0 0.0
2017-Oct-12 04:58N 53°10' E 005°25'0 0.0
2017-Oct-12 04:28N 53°10' E 005°25'0 0.0
2017-Oct-12 03:58N 53°10' E 005°25'0 0.0
2017-Oct-12 03:28N 53°10' E 005°25'0 0.0
2017-Oct-12 02:58N 53°10' E 005°25'0 0.0
2017-Oct-12 02:28N 53°10' E 005°25'0 0.0
2017-Oct-12 01:58N 53°10' E 005°25'0 0.0
2017-Oct-12 01:28N 53°10' E 005°25'0 0.0
2017-Oct-12 00:58N 53°10' E 005°25'0 0.0
2017-Oct-12 00:28N 53°10' E 005°25'0 0.0
2017-Oct-11 23:58N 53°10' E 005°25'0 0.0
2017-Oct-11 23:25N 53°10' E 005°25'0 0.0
2017-Oct-11 22:58N 53°10' E 005°25'0 0.0
2017-Oct-11 22:28N 53°10' E 005°25'0 0.0
2017-Oct-11 21:58N 53°10' E 005°25'0 0.0
2017-Oct-11 21:28N 53°10' E 005°25'0 0.0
2017-Oct-11 20:58N 53°10' E 005°25'0 0.0
2017-Oct-11 20:28N 53°10' E 005°25'0 0.0
2017-Oct-11 19:58N 53°10' E 005°25'0 0.0
2017-Oct-11 19:28N 53°10' E 005°25'0 0.0
2017-Oct-11 18:58N 53°10' E 005°25'0 0.0
2017-Oct-11 18:28N 53°10' E 005°25'0 0.0
2017-Oct-11 17:58N 53°10' E 005°25'0 0.0
2017-Oct-11 17:28N 53°10' E 005°25'0 0.0
2017-Oct-11 16:58N 53°10' E 005°25'0 0.0
2017-Oct-10 23:58N 53°10' E 005°25'0 0.0
2017-Oct-10 23:28N 53°10' E 005°25'0 0.0
2017-Oct-10 22:58N 53°10' E 005°25'0 0.0
2017-Oct-10 22:28N 53°10' E 005°25'0 0.0
2017-Oct-10 21:58N 53°10' E 005°25'0 0.0
2017-Oct-10 21:28N 53°10' E 005°25'0 0.0
2017-Oct-10 20:58N 53°10' E 005°25'0 0.0
2017-Oct-10 20:28N 53°10' E 005°25'0 0.0
2017-Oct-10 19:58N 53°10' E 005°25'0 0.0
2017-Oct-10 19:28N 53°10' E 005°25'0 0.0
2017-Oct-10 18:58N 53°10' E 005°25'0 0.0
2017-Oct-10 18:28N 53°10' E 005°25'0 0.0
2017-Oct-10 17:58N 53°10' E 005°25'0 0.0
2017-Oct-10 17:28N 53°10' E 005°25'0 0.0
2017-Oct-10 16:58N 53°10' E 005°25'0 0.0
2017-Oct-10 16:28N 53°10' E 005°25'0 0.0
2017-Oct-10 15:58N 53°10' E 005°25'0 0.0
2017-Oct-10 15:28N 53°10' E 005°25'0 0.0
2017-Oct-10 14:58N 53°10' E 005°25'0 0.0
2017-Oct-10 13:58N 53°10' E 005°25'0 0.0
2017-Oct-10 13:28N 53°10' E 005°25'0 0.0
2017-Oct-10 12:58N 53°10' E 005°25'0 0.0
2017-Oct-10 12:28N 53°10' E 005°25'0 0.0
2017-Oct-10 11:58N 53°10' E 005°25'0 0.0
2017-Oct-10 11:28N 53°10' E 005°25'0 0.0
2017-Oct-10 10:58N 53°10' E 005°25'0 0.0
2017-Oct-10 10:28N 53°10' E 005°25'0 0.0
2017-Oct-10 09:58N 53°10' E 005°25'0 0.0
2017-Oct-10 09:28N 53°10' E 005°25'0 0.0
2017-Oct-10 08:58N 53°10' E 005°25'0 0.0
2017-Oct-10 08:28N 53°10' E 005°25'0 0.0
2017-Oct-10 07:58N 53°10' E 005°25'0 0.0
2017-Oct-10 07:28N 53°10' E 005°25'0 0.0
2017-Oct-10 06:58N 53°10' E 005°25'0 0.0
2017-Oct-10 06:28N 53°10' E 005°25'0 0.0
2017-Oct-10 05:58N 53°10' E 005°25'0 0.0
2017-Oct-10 05:28N 53°10' E 005°25'0 0.0
2017-Oct-10 04:58N 53°10' E 005°25'0 0.0
2017-Oct-10 04:28N 53°10' E 005°25'0 0.0
2017-Oct-10 03:58N 53°10' E 005°25'0 0.0
2017-Oct-10 03:28N 53°10' E 005°25'0 0.0
2017-Oct-10 02:58N 53°10' E 005°25'0 0.0
2017-Oct-10 02:28N 53°10' E 005°25'0 0.0
2017-Oct-10 01:58N 53°10' E 005°25'0 0.0
2017-Oct-10 01:28N 53°10' E 005°25'0 0.0
2017-Oct-10 00:58N 53°10' E 005°25'0 0.0
2017-Oct-10 00:28N 53°10' E 005°25'0 0.0
2017-Oct-09 23:58N 53°10' E 005°25'0 0.0
2017-Oct-09 23:28N 53°10' E 005°25'0 0.0
2017-Oct-09 22:58N 53°10' E 005°25'0 0.0
2017-Oct-09 22:28N 53°10' E 005°25'0 0.0
2017-Oct-09 21:58N 53°10' E 005°25'0 0.0
2017-Oct-09 21:28N 53°10' E 005°25'0 0.0
2017-Oct-09 20:58N 53°10' E 005°25'0 0.0
2017-Oct-09 20:28N 53°10' E 005°25'0 0.0
2017-Oct-09 19:58N 53°10' E 005°25'0 0.0
2017-Oct-09 19:28N 53°10' E 005°25'0 0.0
2017-Oct-09 18:58N 53°10' E 005°25'0 0.0
2017-Oct-09 18:28N 53°10' E 005°25'0 0.0
2017-Oct-09 17:58N 53°10' E 005°25'0 0.0
2017-Oct-09 17:28N 53°10' E 005°25'0 0.0
2017-Oct-09 16:58N 53°10' E 005°25'0 0.0
2017-Oct-09 16:28N 53°10' E 005°25'0 0.0
2017-Oct-09 15:58N 53°10' E 005°25'0 0.0
2017-Oct-09 15:28N 53°10' E 005°25'0 0.0
2017-Oct-09 14:58N 53°10' E 005°25'0 0.0
2017-Oct-09 14:28N 53°10' E 005°25'0 0.0
2017-Oct-09 13:58N 53°10' E 005°25'0 0.0
2017-Oct-09 13:28N 53°10' E 005°25'0 0.0
2017-Oct-09 12:58N 53°10' E 005°25'0 0.0
2017-Oct-09 12:28N 53°10' E 005°25'0 0.0
2017-Oct-09 12:00N 53°10' E 005°25'0 0.0
2017-Oct-09 11:30N 53°10' E 005°25'0 0.0
2017-Oct-09 11:00N 53°10' E 005°25'0 0.0
2017-Oct-09 10:30N 53°10' E 005°25'0 0.0
2017-Oct-09 10:00N 53°10' E 005°25'0 0.0
2017-Oct-09 09:30N 53°10' E 005°25'0 0.0
2017-Oct-09 09:00N 53°10' E 005°25'0 0.0
2017-Oct-09 08:30N 53°10' E 005°25'0 0.0
2017-Oct-09 08:00N 53°10' E 005°25'0 0.0
2017-Oct-09 07:30N 53°10' E 005°25'0 0.0
2017-Oct-09 07:00N 53°10' E 005°25'0 0.0
2017-Oct-09 06:30N 53°10' E 005°25'0 0.0
2017-Oct-09 06:00N 53°10' E 005°25'0 0.0
2017-Oct-09 05:30N 53°10' E 005°25'0 0.0
2017-Oct-09 05:00N 53°10' E 005°25'0 0.0
2017-Oct-09 04:30N 53°10' E 005°25'0 0.0
2017-Oct-09 04:00N 53°10' E 005°25'0 0.0
2017-Oct-09 03:30N 53°10' E 005°25'  
Track history (hours):
 
Tides and Currents Weather Stations Pressure Air Temp Water Temp Dewpoint Dewpoint Depression Visibility Wind Speed Wind Dir Waves Ship Positions

Wylde Swan

Last reported at 2017-Oct-19 03:00 UTC. Time now 2017-Oct-19 03:24 UTC.
Position N 50°06' W 004°46'.

Length 45 m; draft 3.4 m.

Type: Sailing vessel. MMSI: 244074000.

Date/timePositionNaut miles runAvg speedWind from/ knotsBaromVisibWave heightAir tempDewpointWater temp
2017-Oct-19 03:00N 50°06' W 004°46'2 3.7
2017-Oct-19 02:30N 50°06' W 004°43'2 3.9
2017-Oct-19 02:00N 50°05' W 004°40'2 3.6
2017-Oct-19 01:30N 50°05' W 004°37'2 3.4
2017-Oct-19 01:00N 50°05' W 004°34'1 2.9
2017-Oct-19 00:30N 50°06' W 004°32'2 3.2
2017-Oct-19 00:00N 50°06' W 004°30'2 3.3
2017-Oct-18 23:30N 50°06' W 004°27'2 4.3
2017-Oct-18 23:00N 50°06' W 004°24'2 5.0
2017-Oct-18 22:30N 50°07' W 004°20'3 5.3
2017-Oct-18 22:00N 50°07' W 004°16'3 5.0
2017-Oct-18 21:30N 50°07' W 004°12'2 4.7
2017-Oct-18 21:00N 50°07' W 004°08'2 4.7
2017-Oct-18 20:30N 50°07' W 004°05'2 3.8
2017-Oct-18 20:00N 50°07' W 004°02'2 3.4
2017-Oct-18 19:30N 50°07' W 003°59'1 2.2
2017-Oct-18 19:00N 50°07' W 003°57'2 4.3
2017-Oct-18 18:29N 50°07' W 003°54'2 4.7
2017-Oct-18 18:00N 50°07' W 003°50'2 4.3
2017-Oct-18 17:30N 50°08' W 003°47'2 4.3
2017-Oct-18 17:00N 50°08' W 003°44'2 4.4
2017-Oct-18 16:30N 50°08' W 003°40'1 2.7
2017-Oct-18 16:00N 50°07' W 003°38'2 3.6
2017-Oct-18 15:30N 50°07' W 003°35'2 3.6
2017-Oct-18 15:00N 50°08' W 003°33'4 4.3
2017-Oct-18 14:00N 50°08' W 003°26'3 5.7
2017-Oct-18 13:30N 50°08' W 003°21'3 6.0
2017-Oct-18 13:00N 50°08' W 003°17'3 6.0
2017-Oct-18 12:30N 50°08' W 003°12'2 3.7
2017-Oct-18 12:00N 50°09' W 003°09'2 3.6
2017-Oct-18 11:30N 50°09' W 003°07'2 4.0
2017-Oct-18 11:00N 50°10' W 003°04'2 4.5
2017-Oct-18 10:30N 50°10' W 003°00'2 4.4
2017-Oct-18 10:00N 50°11' W 002°57'2 4.4
2017-Oct-18 09:30N 50°11' W 002°53'2 4.5
2017-Oct-18 08:57N 50°12' W 002°50'2 4.4
2017-Oct-18 08:30N 50°12' W 002°47'2 4.1
2017-Oct-18 08:00N 50°13' W 002°43'2 4.3
2017-Oct-18 07:30N 50°13' W 002°40'2 3.9
2017-Oct-18 07:00N 50°14' W 002°37'2 3.7
2017-Oct-18 06:30N 50°14' W 002°34'2 4.3
2017-Oct-18 06:00N 50°14' W 002°31'47 7.4
2017-Oct-17 23:39N 50°24' W 001°19'3 8.2
2017-Oct-17 23:18N 50°24' W 001°14'5 7.1
2017-Oct-17 22:39N 50°24' W 001°07'3 6.6
2017-Oct-17 22:12N 50°25' W 001°02'1 6.0
2017-Oct-17 22:00N 50°25' W 001°01'3 5.4
2017-Oct-17 21:25N 50°25' W 000°56'4 3.9
2017-Oct-17 20:29N 50°25' W 000°50'2 2.9
2017-Oct-17 19:57N 50°25' W 000°48'2 2.4
2017-Oct-17 19:01N 50°25' W 000°44'0 2.2
2017-Oct-17 19:00N 50°25' W 000°44'1 1.9
2017-Oct-17 18:25N 50°25' W 000°42'1 1.7
2017-Oct-17 17:56N 50°25' W 000°41'2 4.2
2017-Oct-17 17:26N 50°24' W 000°38'2 5.3
2017-Oct-17 16:59N 50°25' W 000°35'3 5.9
2017-Oct-17 16:30N 50°26' W 000°30'3 6.7
2017-Oct-17 16:01N 50°27' W 000°26'4 7.4
2017-Oct-17 15:30N 50°29' W 000°20'4 7.7
2017-Oct-17 15:00N 50°30' W 000°14'4 8.0
2017-Oct-17 14:30N 50°31' W 000°08'4 8.0
2017-Oct-17 14:00N 50°32' W 000°03'4 8.0
2017-Oct-17 13:31N 50°33' E 000°03'4 7.6
2017-Oct-17 13:00N 50°35' E 000°09'4 7.3
2017-Oct-17 12:30N 50°36' E 000°15'3 6.6
2017-Oct-17 12:00N 50°36' E 000°20'3 6.3
2017-Oct-17 11:30N 50°37' E 000°24'3 6.2
2017-Oct-17 11:00N 50°38' E 000°29'3 5.8
2017-Oct-17 10:30N 50°39' E 000°33'3 5.3
2017-Oct-17 10:01N 50°41' E 000°36'3 5.2
2017-Oct-17 09:30N 50°42' E 000°40'3 5.2
2017-Oct-17 09:00N 50°43' E 000°44'2 4.7
2017-Oct-17 08:30N 50°44' E 000°47'2 4.7
2017-Oct-17 08:01N 50°46' E 000°50'2 4.3
2017-Oct-17 07:30N 50°47' E 000°53'2 4.6
2017-Oct-17 07:00N 50°48' E 000°56'2 4.2
2017-Oct-17 06:29N 50°49' E 000°59'2 4.3
2017-Oct-17 05:58N 50°51' E 001°02'3 5.2
2017-Oct-17 05:27N 50°52' E 001°05'2 5.5
2017-Oct-17 05:01N 50°54' E 001°08'3 5.8
2017-Oct-17 04:30N 50°56' E 001°12'3 5.4
2017-Oct-17 03:59N 50°57' E 001°15'3 5.5
2017-Oct-17 03:30N 50°59' E 001°18'3 6.5
2017-Oct-17 03:00N 51°01' E 001°22'3 5.4
2017-Oct-17 02:30N 51°03' E 001°25'3 5.0
2017-Oct-17 02:00N 51°05' E 001°28'2 4.2
2017-Oct-17 01:30N 51°06' E 001°30'2 3.7
2017-Oct-17 01:00N 51°08' E 001°32'2 3.3
2017-Oct-17 00:30N 51°09' E 001°33'1 2.2
2017-Oct-17 00:01N 51°10' E 001°35'1 2.4
2017-Oct-16 23:30N 51°11' E 001°35'1 1.3
2017-Oct-16 23:00N 51°10' E 001°36'1 2.1
2017-Oct-16 22:31N 51°11' E 001°36'0 0.7
2017-Oct-16 22:00N 51°11' E 001°37'1 1.8
2017-Oct-16 21:30N 51°12' E 001°36'2 3.3
2017-Oct-16 21:00N 51°11' E 001°37'1 1.6
2017-Oct-16 20:30N 51°12' E 001°37'0 0.8
2017-Oct-16 20:01N 51°11' E 001°38'0 0.7
2017-Oct-16 19:30N 51°11' E 001°38'1 1.3
2017-Oct-16 19:00N 51°12' E 001°39'1 1.8
2017-Oct-16 18:30N 51°12' E 001°40'2 3.4
2017-Oct-16 18:00N 51°14' E 001°41'2 4.4
2017-Oct-16 17:31N 51°16' E 001°43'3 5.8
2017-Oct-16 17:00N 51°18' E 001°44'3 6.6
2017-Oct-16 16:30N 51°22' E 001°45'3 6.0
2017-Oct-16 16:00N 51°25' E 001°45'3 5.4
2017-Oct-16 15:30N 51°27' E 001°45'2 4.8
2017-Oct-16 15:00N 51°30' E 001°45'2 4.4
2017-Oct-16 14:30N 51°32' E 001°45'4 4.1
2017-Oct-16 13:30N 51°36' E 001°45'2 4.0
2017-Oct-16 13:00N 51°38' E 001°45'2 3.9
2017-Oct-16 12:30N 51°40' E 001°45'2 3.8
2017-Oct-16 12:00N 51°42' E 001°45'2 3.4
2017-Oct-16 11:31N 51°44' E 001°45'2 3.8
2017-Oct-16 11:00N 51°46' E 001°45'2 4.8
2017-Oct-16 10:30N 51°48' E 001°45'3 5.3
2017-Oct-16 10:00N 51°51' E 001°44'3 5.9
2017-Oct-16 09:30N 51°53' E 001°44'3 6.3
2017-Oct-16 09:00N 51°57' E 001°44'4 7.4
2017-Oct-16 08:30N 51°60' E 001°47'4 7.9
2017-Oct-16 08:00N 52°03' E 001°51'4 8.1
2017-Oct-16 07:30N 52°05' E 001°57'4 8.6
2017-Oct-16 07:00N 52°08' E 002°02'48 7.2
2017-Oct-16 00:22N 52°45' E 002°52'2 5.6
2017-Oct-16 00:00N 52°46' E 002°55'3 5.2
2017-Oct-15 23:30N 52°47' E 002°59'3 5.1
2017-Oct-15 23:00N 52°48' E 003°02'2 4.9
2017-Oct-15 22:30N 52°49' E 003°06'2 4.7
2017-Oct-15 22:00N 52°50' E 003°10'2 3.8
2017-Oct-15 21:30N 52°51' E 003°12'2 4.0
2017-Oct-15 20:59N 52°52' E 003°16'2 4.0
2017-Oct-15 20:29N 52°53' E 003°18'9 4.0
2017-Oct-15 18:17N 52°59' E 003°29'1 4.2
2017-Oct-15 18:00N 52°60' E 003°31'2 4.5
2017-Oct-15 17:28N 53°01' E 003°34'2 4.6
2017-Oct-15 16:58N 53°02' E 003°38'3 5.2
2017-Oct-15 16:25N 53°03' E 003°42'2 5.8
2017-Oct-15 16:00N 53°04' E 003°46'3 5.3
2017-Oct-15 15:25N 53°05' E 003°51'2 5.2
2017-Oct-15 15:00N 53°06' E 003°54'5 5.3
2017-Oct-15 14:00N 53°08' E 004°02'3 5.4
2017-Oct-15 13:28N 53°09' E 004°07'3 5.5
2017-Oct-15 13:00N 53°10' E 004°11'3 5.5
2017-Oct-15 12:30N 53°11' E 004°15'3 5.8
2017-Oct-15 12:00N 53°12' E 004°19'3 6.5
2017-Oct-15 11:30N 53°13' E 004°25'4 7.5
2017-Oct-15 11:00N 53°13' E 004°31'4 7.8
2017-Oct-15 10:30N 53°13' E 004°37'4 7.1
2017-Oct-15 10:00N 53°15' E 004°42'4 7.4
2017-Oct-15 09:30N 53°17' E 004°47'4 8.6
2017-Oct-15 09:00N 53°18' E 004°54'4 8.5
2017-Oct-15 08:30N 53°19' E 005°01'5 9.3
2017-Oct-15 08:00N 53°19' E 005°09'3 6.7
2017-Oct-15 07:30N 53°18' E 005°14'2 3.0
2017-Oct-15 07:00N 53°20' E 005°14'1 2.9
2017-Oct-15 06:31N 53°21' E 005°13'1 1.6
2017-Oct-15 06:00N 53°22' E 005°13'0 0.0
2017-Oct-15 05:30N 53°22' E 005°13'0 0.0
2017-Oct-15 05:00N 53°22' E 005°13'0 0.0
2017-Oct-15 04:30N 53°22' E 005°13'0 0.0
2017-Oct-15 04:00N 53°22' E 005°13'0 0.0
2017-Oct-15 03:30N 53°22' E 005°13'0 0.0
2017-Oct-15 03:00N 53°22' E 005°13'0 0.0
2017-Oct-15 02:30N 53°22' E 005°13'0 0.0
2017-Oct-15 02:00N 53°22' E 005°13'0 0.0
2017-Oct-15 01:30N 53°22' E 005°13'0 0.0
2017-Oct-15 01:00N 53°22' E 005°13'0 0.0
2017-Oct-15 00:30N 53°22' E 005°13'0 0.0
2017-Oct-14 23:57N 53°22' E 005°13'0 0.0
2017-Oct-14 23:30N 53°22' E 005°13'0 0.0
2017-Oct-14 23:00N 53°22' E 005°13'0 0.0
2017-Oct-14 22:27N 53°22' E 005°13'0 0.0
2017-Oct-14 21:57N 53°22' E 005°13'0 0.0
2017-Oct-14 21:30N 53°22' E 005°13'0 0.0
2017-Oct-14 21:00N 53°22' E 005°13'0 0.0
2017-Oct-14 20:27N 53°22' E 005°13'0 0.0
2017-Oct-14 20:00N 53°22' E 005°13'0 0.0
2017-Oct-14 19:27N 53°22' E 005°13'0 0.0
2017-Oct-14 19:00N 53°22' E 005°13'0 0.0
2017-Oct-14 18:30N 53°22' E 005°13'0 0.0
2017-Oct-14 17:57N 53°22' E 005°13'0 0.0
2017-Oct-14 17:30N 53°22' E 005°13'0 0.0
2017-Oct-14 16:57N 53°22' E 005°13'0 0.1
2017-Oct-14 16:30N 53°22' E 005°13'2 3.4
2017-Oct-14 16:00N 53°20' E 005°13'2 4.6
2017-Oct-14 15:30N 53°18' E 005°13'3 6.8
2017-Oct-14 15:00N 53°15' E 005°10'3 6.5
2017-Oct-14 14:30N 53°14' E 005°15'3 6.7
2017-Oct-14 14:00N 53°12' E 005°19'3 6.0
2017-Oct-14 13:30N 53°11' E 005°24'1 1.2
2017-Oct-14 12:58N 53°10' E 005°25'0 0.0
2017-Oct-14 12:28N 53°10' E 005°25'0 0.0
2017-Oct-14 11:58N 53°10' E 005°25'0 0.0
2017-Oct-14 11:28N 53°10' E 005°25'0 0.0
2017-Oct-14 10:58N 53°10' E 005°25'0 0.0
2017-Oct-14 10:28N 53°10' E 005°25'0 0.0
2017-Oct-14 09:58N 53°10' E 005°25'0 0.0
2017-Oct-14 09:28N 53°10' E 005°25'0 0.0
2017-Oct-14 08:58N 53°10' E 005°25'0 0.0
2017-Oct-14 08:28N 53°10' E 005°25'0 0.0
2017-Oct-14 07:58N 53°10' E 005°25'0 0.0
2017-Oct-14 07:28N 53°10' E 005°25'0 0.0
2017-Oct-14 06:58N 53°10' E 005°25'0 0.0
2017-Oct-14 06:28N 53°10' E 005°25'0 0.0
2017-Oct-14 05:58N 53°10' E 005°25'0 0.0
2017-Oct-14 05:28N 53°10' E 005°25'0 0.0
2017-Oct-14 04:58N 53°10' E 005°25'0 0.0
2017-Oct-14 04:28N 53°10' E 005°25'0 0.0
2017-Oct-14 03:58N 53°10' E 005°25'0 0.0
2017-Oct-14 03:28N 53°10' E 005°25'0 0.0
2017-Oct-14 02:58N 53°10' E 005°25'0 0.0
2017-Oct-14 02:28N 53°10' E 005°25'0 0.0
2017-Oct-14 01:58N 53°10' E 005°25'0 0.0
2017-Oct-14 01:28N 53°10' E 005°25'0 0.0
2017-Oct-14 00:58N 53°10' E 005°25'0 0.0
2017-Oct-14 00:28N 53°10' E 005°25'0 0.0
2017-Oct-13 23:58N 53°10' E 005°25'0 0.0
2017-Oct-13 23:28N 53°10' E 005°25'0 0.0
2017-Oct-13 22:58N 53°10' E 005°25'0 0.0
2017-Oct-13 22:28N 53°10' E 005°25'0 0.0
2017-Oct-13 21:58N 53°10' E 005°25'0 0.0
2017-Oct-13 21:28N 53°10' E 005°25'0 0.0
2017-Oct-13 20:58N 53°10' E 005°25'0 0.0
2017-Oct-13 20:28N 53°10' E 005°25'0 0.0
2017-Oct-13 19:58N 53°10' E 005°25'0 0.0
2017-Oct-13 19:28N 53°10' E 005°25'0 0.0
2017-Oct-13 18:58N 53°10' E 005°25'0 0.0
2017-Oct-13 18:28N 53°10' E 005°25'0 0.0
2017-Oct-13 17:58N 53°10' E 005°25'0 0.0
2017-Oct-13 17:28N 53°10' E 005°25'0 0.0
2017-Oct-13 16:58N 53°10' E 005°25'0 0.0
2017-Oct-13 16:28N 53°10' E 005°25'0 0.0
2017-Oct-13 15:58N 53°10' E 005°25'0 0.0
2017-Oct-13 15:28N 53°10' E 005°25'0 0.0
2017-Oct-13 14:58N 53°10' E 005°25'0 0.0
2017-Oct-13 14:28N 53°10' E 005°25'0 0.0
2017-Oct-13 13:58N 53°10' E 005°25'0 0.0
2017-Oct-13 13:28N 53°10' E 005°25'0 0.0
2017-Oct-13 12:58N 53°10' E 005°25'0 0.0
2017-Oct-13 12:28N 53°10' E 005°25'0 0.0
2017-Oct-13 11:58N 53°10' E 005°25'0 0.0
2017-Oct-13 11:28N 53°10' E 005°25'0 0.0
2017-Oct-13 10:58N 53°10' E 005°25'0 0.0
2017-Oct-13 10:28N 53°10' E 005°25'0 0.0
2017-Oct-13 09:58N 53°10' E 005°25'0 0.0
2017-Oct-13 09:28N 53°10' E 005°25'0 0.0
2017-Oct-13 08:55N 53°10' E 005°25'0 0.0
2017-Oct-13 08:28N 53°10' E 005°25'0 0.0
2017-Oct-13 07:58N 53°10' E 005°25'0 0.0
2017-Oct-13 07:28N 53°10' E 005°25'0 0.0
2017-Oct-13 06:58N 53°10' E 005°25'0 0.0
2017-Oct-13 06:28N 53°10' E 005°25'0 0.0
2017-Oct-13 05:58N 53°10' E 005°25'0 0.0
2017-Oct-13 05:28N 53°10' E 005°25'0 0.0
2017-Oct-13 04:58N 53°10' E 005°25'0 0.0
2017-Oct-13 04:28N 53°10' E 005°25'0 0.0
2017-Oct-13 03:58N 53°10' E 005°25'0 0.0
2017-Oct-13 03:28N 53°10' E 005°25'0 0.0
2017-Oct-13 02:58N 53°10' E 005°25'0 0.0
2017-Oct-13 02:28N 53°10' E 005°25'0 0.0
2017-Oct-13 01:58N 53°10' E 005°25'0 0.0
2017-Oct-13 01:28N 53°10' E 005°25'0 0.0
2017-Oct-13 00:58N 53°10' E 005°25'0 0.0
2017-Oct-13 00:28N 53°10' E 005°25'0 0.0
2017-Oct-12 23:58N 53°10' E 005°25'0 0.0
2017-Oct-12 23:28N 53°10' E 005°25'0 0.0
2017-Oct-12 22:58N 53°10' E 005°25'0 0.0
2017-Oct-12 22:28N 53°10' E 005°25'0 0.0
2017-Oct-12 21:58N 53°10' E 005°25'0 0.0
2017-Oct-12 21:28N 53°10' E 005°25'0 0.0
2017-Oct-12 20:58N 53°10' E 005°25'0 0.0
2017-Oct-12 20:28N 53°10' E 005°25'0 0.0
2017-Oct-12 19:58N 53°10' E 005°25'0 0.0
2017-Oct-12 19:28N 53°10' E 005°25'0 0.0
2017-Oct-12 18:58N 53°10' E 005°25'0 0.0
2017-Oct-12 18:28N 53°10' E 005°25'0 0.0
2017-Oct-12 17:58N 53°10' E 005°25'0 0.0
2017-Oct-12 17:28N 53°10' E 005°25'0 0.0
2017-Oct-12 16:58N 53°10' E 005°25'0 0.0
2017-Oct-12 16:28N 53°10' E 005°25'0 0.0
2017-Oct-12 15:58N 53°10' E 005°25'0 0.0
2017-Oct-12 15:28N 53°10' E 005°25'0 0.0
2017-Oct-12 14:58N 53°10' E 005°25'0 0.0
2017-Oct-12 14:28N 53°10' E 005°25'0 0.0
2017-Oct-12 13:58N 53°10' E 005°25'0 0.0
2017-Oct-12 13:28N 53°10' E 005°25'0 0.0
2017-Oct-12 12:58N 53°10' E 005°25'0 0.0
2017-Oct-12 12:28N 53°10' E 005°25'0 0.0
2017-Oct-12 11:55N 53°10' E 005°25'0 0.0
2017-Oct-12 11:28N 53°10' E 005°25'0 0.0
2017-Oct-12 10:58N 53°10' E 005°25'0 0.0
2017-Oct-12 10:28N 53°10' E 005°25'0 0.0
2017-Oct-12 09:58N 53°10' E 005°25'0 0.0
2017-Oct-12 09:28N 53°10' E 005°25'0 0.0
2017-Oct-12 08:58N 53°10' E 005°25'0 0.0
2017-Oct-12 08:28N 53°10' E 005°25'0 0.0
2017-Oct-12 07:58N 53°10' E 005°25'0 0.0
2017-Oct-12 07:25N 53°10' E 005°25'0 0.0
2017-Oct-12 06:58N 53°10' E 005°25'0 0.0
2017-Oct-12 06:28N 53°10' E 005°25'0 0.0
2017-Oct-12 05:58N 53°10' E 005°25'0 0.0
2017-Oct-12 05:28N 53°10' E 005°25'0 0.0
2017-Oct-12 04:58N 53°10' E 005°25'0 0.0
2017-Oct-12 04:28N 53°10' E 005°25'0 0.0
2017-Oct-12 03:58N 53°10' E 005°25'0 0.0
2017-Oct-12 03:28N 53°10' E 005°25'0 0.0
2017-Oct-12 02:58N 53°10' E 005°25'0 0.0
2017-Oct-12 02:28N 53°10' E 005°25'0 0.0
2017-Oct-12 01:58N 53°10' E 005°25'0 0.0
2017-Oct-12 01:28N 53°10' E 005°25'0 0.0
2017-Oct-12 00:58N 53°10' E 005°25'0 0.0
2017-Oct-12 00:28N 53°10' E 005°25'0 0.0
2017-Oct-11 23:58N 53°10' E 005°25'0 0.0
2017-Oct-11 23:25N 53°10' E 005°25'0 0.0
2017-Oct-11 22:58N 53°10' E 005°25'0 0.0
2017-Oct-11 22:28N 53°10' E 005°25'0 0.0
2017-Oct-11 21:58N 53°10' E 005°25'0 0.0
2017-Oct-11 21:28N 53°10' E 005°25'0 0.0
2017-Oct-11 20:58N 53°10' E 005°25'0 0.0
2017-Oct-11 20:28N 53°10' E 005°25'0 0.0
2017-Oct-11 19:58N 53°10' E 005°25'0 0.0
2017-Oct-11 19:28N 53°10' E 005°25'0 0.0
2017-Oct-11 18:58N 53°10' E 005°25'0 0.0
2017-Oct-11 18:28N 53°10' E 005°25'0 0.0
2017-Oct-11 17:58N 53°10' E 005°25'0 0.0
2017-Oct-11 17:28N 53°10' E 005°25'0 0.0
2017-Oct-11 16:58N 53°10' E 005°25'0 0.0
2017-Oct-10 23:58N 53°10' E 005°25'0 0.0
2017-Oct-10 23:28N 53°10' E 005°25'0 0.0
2017-Oct-10 22:58N 53°10' E 005°25'0 0.0
2017-Oct-10 22:28N 53°10' E 005°25'0 0.0
2017-Oct-10 21:58N 53°10' E 005°25'0 0.0
2017-Oct-10 21:28N 53°10' E 005°25'0 0.0
2017-Oct-10 20:58N 53°10' E 005°25'0 0.0
2017-Oct-10 20:28N 53°10' E 005°25'0 0.0
2017-Oct-10 19:58N 53°10' E 005°25'0 0.0
2017-Oct-10 19:28N 53°10' E 005°25'0 0.0
2017-Oct-10 18:58N 53°10' E 005°25'0 0.0
2017-Oct-10 18:28N 53°10' E 005°25'0 0.0
2017-Oct-10 17:58N 53°10' E 005°25'0 0.0
2017-Oct-10 17:28N 53°10' E 005°25'0 0.0
2017-Oct-10 16:58N 53°10' E 005°25'0 0.0
2017-Oct-10 16:28N 53°10' E 005°25'0 0.0
2017-Oct-10 15:58N 53°10' E 005°25'0 0.0
2017-Oct-10 15:28N 53°10' E 005°25'0 0.0
2017-Oct-10 14:58N 53°10' E 005°25'0 0.0
2017-Oct-10 13:58N 53°10' E 005°25'0 0.0
2017-Oct-10 13:28N 53°10' E 005°25'0 0.0
2017-Oct-10 12:58N 53°10' E 005°25'0 0.0
2017-Oct-10 12:28N 53°10' E 005°25'0 0.0
2017-Oct-10 11:58N 53°10' E 005°25'0 0.0
2017-Oct-10 11:28N 53°10' E 005°25'0 0.0
2017-Oct-10 10:58N 53°10' E 005°25'0 0.0
2017-Oct-10 10:28N 53°10' E 005°25'0 0.0
2017-Oct-10 09:58N 53°10' E 005°25'0 0.0
2017-Oct-10 09:28N 53°10' E 005°25'0 0.0
2017-Oct-10 08:58N 53°10' E 005°25'0 0.0
2017-Oct-10 08:28N 53°10' E 005°25'0 0.0
2017-Oct-10 07:58N 53°10' E 005°25'0 0.0
2017-Oct-10 07:28N 53°10' E 005°25'0 0.0
2017-Oct-10 06:58N 53°10' E 005°25'0 0.0
2017-Oct-10 06:28N 53°10' E 005°25'0 0.0
2017-Oct-10 05:58N 53°10' E 005°25'0 0.0
2017-Oct-10 05:28N 53°10' E 005°25'0 0.0
2017-Oct-10 04:58N 53°10' E 005°25'0 0.0
2017-Oct-10 04:28N 53°10' E 005°25'0 0.0
2017-Oct-10 03:58N 53°10' E 005°25'0 0.0
2017-Oct-10 03:28N 53°10' E 005°25'0 0.0
2017-Oct-10 02:58N 53°10' E 005°25'0 0.0
2017-Oct-10 02:28N 53°10' E 005°25'0 0.0
2017-Oct-10 01:58N 53°10' E 005°25'0 0.0
2017-Oct-10 01:28N 53°10' E 005°25'0 0.0
2017-Oct-10 00:58N 53°10' E 005°25'0 0.0
2017-Oct-10 00:28N 53°10' E 005°25'0 0.0
2017-Oct-09 23:58N 53°10' E 005°25'0 0.0
2017-Oct-09 23:28N 53°10' E 005°25'0 0.0
2017-Oct-09 22:58N 53°10' E 005°25'0 0.0
2017-Oct-09 22:28N 53°10' E 005°25'0 0.0
2017-Oct-09 21:58N 53°10' E 005°25'0 0.0
2017-Oct-09 21:28N 53°10' E 005°25'0 0.0
2017-Oct-09 20:58N 53°10' E 005°25'0 0.0
2017-Oct-09 20:28N 53°10' E 005°25'0 0.0
2017-Oct-09 19:58N 53°10' E 005°25'0 0.0
2017-Oct-09 19:28N 53°10' E 005°25'0 0.0
2017-Oct-09 18:58N 53°10' E 005°25'0 0.0
2017-Oct-09 18:28N 53°10' E 005°25'0 0.0
2017-Oct-09 17:58N 53°10' E 005°25'0 0.0
2017-Oct-09 17:28N 53°10' E 005°25'0 0.0
2017-Oct-09 16:58N 53°10' E 005°25'0 0.0
2017-Oct-09 16:28N 53°10' E 005°25'0 0.0
2017-Oct-09 15:58N 53°10' E 005°25'0 0.0
2017-Oct-09 15:28N 53°10' E 005°25'0 0.0
2017-Oct-09 14:58N 53°10' E 005°25'0 0.0
2017-Oct-09 14:28N 53°10' E 005°25'0 0.0
2017-Oct-09 13:58N 53°10' E 005°25'0 0.0
2017-Oct-09 13:28N 53°10' E 005°25'0 0.0
2017-Oct-09 12:58N 53°10' E 005°25'0 0.0
2017-Oct-09 12:28N 53°10' E 005°25'0 0.0
2017-Oct-09 12:00N 53°10' E 005°25'0 0.0
2017-Oct-09 11:30N 53°10' E 005°25'0 0.0
2017-Oct-09 11:00N 53°10' E 005°25'0 0.0
2017-Oct-09 10:30N 53°10' E 005°25'0 0.0
2017-Oct-09 10:00N 53°10' E 005°25'0 0.0
2017-Oct-09 09:30N 53°10' E 005°25'0 0.0
2017-Oct-09 09:00N 53°10' E 005°25'0 0.0
2017-Oct-09 08:30N 53°10' E 005°25'0 0.0
2017-Oct-09 08:00N 53°10' E 005°25'0 0.0
2017-Oct-09 07:30N 53°10' E 005°25'0 0.0
2017-Oct-09 07:00N 53°10' E 005°25'0 0.0
2017-Oct-09 06:30N 53°10' E 005°25'0 0.0
2017-Oct-09 06:00N 53°10' E 005°25'0 0.0
2017-Oct-09 05:30N 53°10' E 005°25'0 0.0
2017-Oct-09 05:00N 53°10' E 005°25'0 0.0
2017-Oct-09 04:30N 53°10' E 005°25'0 0.0
2017-Oct-09 04:00N 53°10' E 005°25'0 0.0
2017-Oct-09 03:30N 53°10' E 005°25'  

Dump ship's entire track history